EGGW/LTN METAR and TAF weather

Enter ICAO airport designator
Station Type Date Time Source
EGGW METAR 2019/05/23 19:20 UTC NOAA

EGGW 231920Z AUTO 32007KT 9999 NCD 19/04 Q1014


Station Type Date Time Source
EGGW Decoded METAR 2019/05/23 19:20 UTC NOAA

Luton Airport , United Kingdom (EGGW) 51-52N 000-22W
May 23, 2019 - 03:20 PM EDT / 2019.05.23 1920 UTC
Wind: from the NW (320 degrees) at 8 MPH (7 KT):0
Visibility: greater than 7 mile(s):0
Temperature: 66 F (19 C)
Dew Point: 39 F (4 C)
Relative Humidity: 37%
Pressure (altimeter): 29.94 in. Hg (1014 hPa)
ob: EGGW 231920Z AUTO 32007KT 9999 NCD 19/04 Q1014
cycle: 19

Station Type Date Time Source
EGGW TAF 2019/05/23 18:09 UTC NOAA

TAF EGGW 231658Z 2318/2418 25005KT CAVOK
BECMG 2321/2324 33010KT PROB30
TEMPO 2415/2418 9000 -SHRA

Example: see airport list